Time;durP1;ratioP1;P1;durP2;ratioP2;P2;SDS_P1;SDS_P2;PMS_P1;PMS_P2;Temp;Humidity;BMP_temperature;BMP_pressure;BME280_temperature;BME280_humidity;BME280_pressure;Samples;Min_cycle;Max_cycle;Signal;HPM_P1;HPM_P2
2022/06/25 00:01:16;;;;;;;3.58;1.00;;;;;;;22.89;59.40;100276.31;4895766;29;20444;-60
2022/06/25 00:04:01;;;;;;;3.88;1.02;;;;;;;23.51;57.53;100275.34;4894606;29;20043;-60
2022/06/25 00:06:47;;;;;;;4.68;1.20;;;;;;;23.86;55.88;100274.13;4895839;29;20056;-61
2022/06/25 00:09:31;;;;;;;2.05;0.80;;;;;;;23.99;55.06;100268.78;4893646;29;20051;-61
2022/06/25 00:12:31;;;;;;;6.60;1.17;;;;;;;23.97;54.74;100274.00;4895417;29;20055;-61
2022/06/25 00:15:16;;;;;;;3.30;0.95;;;;;;;24.02;54.40;100270.75;4908931;29;20540;-62
2022/06/25 00:18:01;;;;;;;17.85;3.30;;;;;;;24.10;54.06;100266.66;4896613;29;20051;-60
2022/06/25 00:20:46;;;;;;;4.18;0.82;;;;;;;24.18;54.01;100259.81;4895458;29;20052;-61
2022/06/25 00:23:31;;;;;;;6.28;0.90;;;;;;;24.24;53.40;100266.47;4908301;29;20051;-60
2022/06/25 00:26:17;;;;;;;4.80;1.75;;;;;;;24.27;53.30;100260.09;4912612;29;20052;-60
2022/06/25 00:29:01;;;;;;;3.13;1.20;;;;;;;24.31;53.13;100263.63;4894471;29;20047;-60
2022/06/25 00:31:46;;;;;;;3.65;0.85;;;;;;;24.15;53.32;100258.66;4895396;29;20055;-61
2022/06/25 00:34:31;;;;;;;3.25;1.10;;;;;;;23.97;53.61;100266.44;4893685;29;20048;-61
2022/06/25 00:37:16;;;;;;;6.70;1.58;;;;;;;23.72;54.12;100263.97;4895213;29;20048;-61
2022/06/25 00:40:01;;;;;;;5.97;1.58;;;;;;;23.30;54.56;100269.97;4908827;29;20126;-61
2022/06/25 00:42:49;;;;;;;9.80;2.17;;;;;;;22.98;55.23;100257.22;4895479;29;20051;-62
2022/06/25 00:45:34;;;;;;;3.67;0.98;;;;;;;22.78;56.37;100270.06;4890225;29;20052;-62
2022/06/25 00:48:19;;;;;;;4.70;1.02;;;;;;;21.99;59.54;100276.50;4901055;29;20043;-61
2022/06/25 00:51:11;;;;;;;6.25;2.17;;;;;;;21.10;63.47;100285.00;4896075;29;20059;-62
2022/06/25 00:54:02;;;;;;;4.43;1.15;;;;;;;21.08;63.52;100281.06;4896370;29;20052;-61
2022/06/25 00:56:51;;;;;;;5.28;1.25;;;;;;;20.96;63.94;100292.50;4895663;29;20051;-62
2022/06/25 00:59:43;;;;;;;4.28;1.48;;;;;;;20.83;64.83;100289.34;4889576;29;20059;-62
2022/06/25 01:02:28;;;;;;;6.32;2.10;;;;;;;21.09;63.02;100285.38;4895372;29;20051;-61
2022/06/25 01:05:15;;;;;;;4.47;1.27;;;;;;;22.02;61.35;100300.63;4894965;29;20047;-61
2022/06/25 01:08:00;;;;;;;6.10;1.45;;;;;;;22.30;57.71;100294.91;4895669;29;20064;-62
2022/06/25 01:10:45;;;;;;;6.18;2.03;;;;;;;22.93;56.33;100293.72;4914036;29;20051;-61
2022/06/25 01:13:31;;;;;;;5.15;1.67;;;;;;;23.13;55.91;100293.13;4899666;29;20055;-62
2022/06/25 01:16:16;;;;;;;4.68;0.90;;;;;;;22.91;56.14;100293.31;4903089;29;20520;-62
2022/06/25 01:19:10;;;;;;;7.00;1.13;;;;;;;23.13;54.50;100288.38;4899082;29;20068;-61
2022/06/25 01:21:59;;;;;;;4.45;1.30;;;;;;;23.02;55.67;100288.47;4899247;29;20043;-62
2022/06/25 01:24:44;;;;;;;8.85;1.30;;;;;;;23.00;55.65;100293.66;4899010;29;20052;-61
2022/06/25 01:27:29;;;;;;;3.58;0.95;;;;;;;23.31;55.02;100291.00;4892342;29;20040;-61
2022/06/25 01:30:15;;;;;;;6.30;1.20;;;;;;;23.42;54.91;100298.00;4899234;29;20396;-62
2022/06/25 01:32:59;;;;;;;4.40;1.10;;;;;;;23.50;54.45;100304.28;4898900;29;20051;-61
2022/06/25 01:35:44;;;;;;;5.05;1.13;;;;;;;23.76;53.98;100308.38;4901172;29;20400;-61
2022/06/25 01:38:29;;;;;;;4.07;1.20;;;;;;;23.82;53.55;100298.38;4892354;29;20048;-62
2022/06/25 01:41:14;;;;;;;9.38;1.38;;;;;;;23.64;53.13;100292.25;4902620;29;20068;-61
2022/06/25 01:43:59;;;;;;;2.45;0.88;;;;;;;23.59;53.74;100298.25;4899126;29;20053;-60
2022/06/25 01:46:44;;;;;;;2.92;0.60;;;;;;;23.68;53.60;100302.09;4898089;29;20052;-61
2022/06/25 01:49:29;;;;;;;3.58;1.08;;;;;;;23.61;53.54;100298.63;4892540;29;20044;-61
2022/06/25 01:52:14;;;;;;;2.38;0.80;;;;;;;23.63;53.33;100297.00;4898403;29;20063;-60
2022/06/25 01:54:59;;;;;;;5.25;0.70;;;;;;;23.56;53.84;100291.53;4898552;29;20048;-61
2022/06/25 01:57:45;;;;;;;4.32;0.80;;;;;;;23.73;53.37;100284.19;4898063;29;20051;-60
2022/06/25 02:00:31;;;;;;;4.75;0.93;;;;;;;23.67;53.26;100294.97;4898389;29;20051;-61
2022/06/25 02:03:23;;;;;;;6.53;1.33;;;;;;;23.71;53.28;100292.97;4898500;29;20527;-61
2022/06/25 02:06:08;;;;;;;5.47;1.13;;;;;;;23.86;52.59;100294.34;4897985;29;20132;-61
2022/06/25 02:08:53;;;;;;;4.85;0.93;;;;;;;23.97;52.38;100294.22;4898004;29;20052;-60
2022/06/25 02:11:38;;;;;;;4.57;1.25;;;;;;;23.97;52.17;100299.78;4893353;29;20047;-61
2022/06/25 02:14:24;;;;;;;2.47;0.90;;;;;;;24.03;51.72;100294.53;4890916;29;20048;-61
2022/06/25 02:17:08;;;;;;;3.58;0.82;;;;;;;24.03;51.64;100297.31;4914325;29;20409;-61
2022/06/25 02:19:53;;;;;;;8.75;1.92;;;;;;;23.85;51.08;100300.31;4896939;29;20056;-61
2022/06/25 02:22:38;;;;;;;3.95;1.00;;;;;;;23.75;52.04;100301.25;4892821;29;20047;-61
2022/06/25 02:25:23;;;;;;;30.48;1.80;;;;;;;23.72;51.98;100304.84;4897494;29;20421;-61
2022/06/25 02:28:08;;;;;;;15.48;1.55;;;;;;;23.61;52.51;100304.19;4897529;29;20052;-61
2022/06/25 02:30:53;;;;;;;12.88;2.83;;;;;;;22.97;53.55;100296.44;4897440;29;20056;-61
2022/06/25 02:33:38;;;;;;;10.70;2.47;;;;;;;23.00;54.05;100301.97;4898012;29;20047;-61
2022/06/25 02:36:23;;;;;;;6.80;1.20;;;;;;;22.62;54.83;100303.03;4898098;29;20055;-61
2022/06/25 02:39:08;;;;;;;6.03;1.30;;;;;;;22.25;55.53;100313.97;4909703;29;20060;-61
2022/06/25 02:41:53;;;;;;;5.88;1.02;;;;;;;22.12;55.64;100311.63;4897704;29;20052;-61
2022/06/25 02:44:40;;;;;;;8.30;0.80;;;;;;;22.13;56.29;100299.38;4897833;29;20044;-61
2022/06/25 02:47:26;;;;;;;4.72;1.42;;;;;;;21.91;56.92;100303.41;4897177;29;20500;-61
2022/06/25 02:50:24;;;;;;;4.15;0.88;;;;;;;22.22;56.00;100303.69;4897679;29;20547;-61
2022/06/25 02:53:09;;;;;;;2.97;0.90;;;;;;;22.57;55.97;100300.69;4897771;29;20052;-61
2022/06/25 02:58:59;;;;;;;8.43;1.10;;;;;;;22.84;55.30;100284.28;4897112;29;20068;-62
2022/06/25 03:01:55;;;;;;;8.20;1.10;;;;;;;23.21;54.15;100291.88;4897215;29;20056;-61
2022/06/25 03:04:42;;;;;;;7.07;1.50;;;;;;;23.42;52.63;100278.56;4892790;29;20040;-61
2022/06/25 03:07:27;;;;;;;9.70;1.15;;;;;;;23.65;51.90;100268.84;4889268;29;20052;-61
2022/06/25 03:10:13;;;;;;;8.63;1.25;;;;;;;23.71;51.63;100262.41;4897166;29;20059;-61
2022/06/25 03:12:58;;;;;;;3.70;0.98;;;;;;;23.71;51.56;100265.19;4897573;29;20043;-60
2022/06/25 03:15:45;;;;;;;2.15;0.80;;;;;;;23.57;51.88;100267.34;4911967;29;20051;-61
2022/06/25 03:18:31;;;;;;;5.00;1.00;;;;;;;23.51;52.44;100269.00;4896422;29;20051;-61
2022/06/25 03:21:44;;;;;;;3.33;1.10;;;;;;;23.33;52.52;100269.16;4896252;29;20063;-61
2022/06/25 03:24:30;;;;;;;1.30;0.60;;;;;;;23.02;52.84;100263.50;4890591;29;20048;-61
2022/06/25 03:27:15;;;;;;;6.75;1.35;;;;;;;22.23;54.05;100275.56;4896582;29;20051;-61
2022/06/25 03:30:04;;;;;;;5.03;1.02;;;;;;;22.01;55.98;100276.88;4909330;29;20063;-62
2022/06/25 03:32:50;;;;;;;8.77;1.00;;;;;;;22.13;54.54;100285.53;4899509;29;20044;-62
2022/06/25 03:35:41;;;;;;;7.82;1.25;;;;;;;22.21;54.45;100293.78;4892020;29;20508;-61
2022/06/25 03:38:35;;;;;;;;;;;;;;;21.71;56.11;100293.97;4893315;29;20053;-61
2022/06/25 03:41:32;;;;;;;9.43;1.40;;;;;;;21.11;58.03;100294.88;4889162;29;19915;-61
2022/06/25 03:44:29;;;;;;;5.80;1.10;;;;;;;21.41;57.93;100297.22;4900451;29;20048;-62
2022/06/25 03:47:29;;;;;;;5.10;1.13;;;;;;;21.61;58.37;100303.09;4890795;29;20047;-61
2022/06/25 03:50:18;;;;;;;8.05;0.90;;;;;;;22.16;56.31;100304.09;4896591;29;20064;-61
2022/06/25 03:53:04;;;;;;;6.63;1.40;;;;;;;22.56;54.59;100302.66;4895927;29;20142;-60
2022/06/25 03:55:50;;;;;;;4.38;0.90;;;;;;;23.10;53.53;100307.84;4896662;29;20532;-61
2022/06/25 03:58:35;;;;;;;5.93;1.00;;;;;;;23.39;52.10;100309.94;4892522;29;20047;-60
2022/06/25 04:01:23;;;;;;;3.70;0.60;;;;;;;23.64;51.20;100318.00;4895950;29;20397;-61
2022/06/25 04:04:09;;;;;;;2.08;0.65;;;;;;;23.50;50.79;100318.16;4896312;29;20421;-61
2022/06/25 04:06:55;;;;;;;5.18;0.93;;;;;;;23.54;51.60;100318.13;4895634;29;20067;-61
2022/06/25 04:09:40;;;;;;;5.13;0.85;;;;;;;23.67;51.01;100319.94;4896034;29;20048;-61
2022/06/25 04:12:25;;;;;;;3.75;0.63;;;;;;;23.88;50.62;100324.47;4890870;29;20051;-61
2022/06/25 04:15:10;;;;;;;4.07;0.95;;;;;;;24.14;49.70;100331.31;4896104;29;20055;-61
2022/06/25 04:17:56;;;;;;;2.25;0.65;;;;;;;24.08;49.35;100328.19;4894872;29;20047;-61
2022/06/25 04:20:41;;;;;;;2.22;0.68;;;;;;;24.12;49.26;100330.94;4896294;29;20417;-61
2022/06/25 04:23:27;;;;;;;1.13;0.40;;;;;;;24.21;49.03;100318.16;4895378;29;20051;-61
2022/06/25 04:26:12;;;;;;;5.22;0.68;;;;;;;24.42;48.60;100327.41;4896003;29;20052;-61
2022/06/25 04:29:03;;;;;;;3.70;0.70;;;;;;;24.55;47.50;100331.16;4894849;29;20415;-61
2022/06/25 04:31:56;;;;;;;3.90;1.13;;;;;;;24.48;47.73;100334.81;4896023;29;20047;-61
2022/06/25 04:35:04;;;;;;;3.42;0.60;;;;;;;24.45;47.89;100327.34;4898066;29;20076;-61
2022/06/25 04:37:51;;;;;;;7.80;1.23;;;;;;;23.95;47.99;100309.72;4895567;29;20503;-61
2022/06/25 04:40:38;;;;;;;5.55;0.70;;;;;;;24.20;48.54;100318.56;4890680;29;20056;-61
2022/06/25 04:43:23;;;;;;;12.00;0.70;;;;;;;24.17;48.29;100316.63;4896565;29;20044;-62
2022/06/25 04:46:08;;;;;;;3.40;0.68;;;;;;;24.58;47.95;100322.75;4895046;29;20067;-61
2022/06/25 04:48:57;;;;;;;2.55;0.57;;;;;;;24.68;46.80;100327.41;4894876;29;20047;-61
2022/06/25 04:51:44;;;;;;;2.95;0.52;;;;;;;24.47;46.74;100327.72;4895518;29;20063;-61
2022/06/25 04:54:29;;;;;;;5.03;0.68;;;;;;;24.39;47.29;100336.56;4946884;23;20055;-80
2022/06/25 04:57:24;;;;;;;4.55;0.88;;;;;;;24.44;47.24;100345.22;4988610;23;21628;-63
2022/06/25 05:00:27;;;;;;;2.53;0.55;;;;;;;24.53;46.68;100353.81;4910990;29;20043;-63
2022/06/25 05:03:12;;;;;;;4.65;0.90;;;;;;;24.73;46.51;100348.38;4913786;29;20051;-62
2022/06/25 05:06:09;;;;;;;3.10;1.02;;;;;;;24.61;46.43;100358.09;4914676;29;20054;-61
2022/06/25 05:08:54;;;;;;;4.07;0.60;;;;;;;24.71;46.01;100356.34;4933280;29;20462;-62
2022/06/25 05:11:39;;;;;;;3.00;0.63;;;;;;;24.82;45.60;100361.75;4904644;29;20055;-61
2022/06/25 05:14:25;;;;;;;2.97;0.40;;;;;;;24.82;45.71;100359.78;4909249;29;20051;-61
2022/06/25 05:17:10;;;;;;;11.40;0.90;;;;;;;24.69;45.08;100367.88;4914154;29;20051;-63
2022/06/25 05:19:55;;;;;;;2.35;0.35;;;;;;;24.78;44.81;100383.28;4910826;29;20068;-62
2022/06/25 05:22:40;;;;;;;3.33;0.88;;;;;;;24.73;44.16;100375.41;4909092;29;20039;-61
2022/06/25 05:25:26;;;;;;;15.48;1.25;;;;;;;24.83;43.86;100377.25;4907540;29;20055;-62
2022/06/25 05:28:11;;;;;;;8.98;0.63;;;;;;;24.86;43.07;100368.06;4913658;29;20407;-64
2022/06/25 05:30:55;;;;;;;7.43;0.77;;;;;;;24.89;43.03;100386.72;4911709;29;20051;-61
2022/06/25 05:33:40;;;;;;;10.52;1.33;;;;;;;24.89;42.45;100386.72;4914983;29;20055;-63
2022/06/25 05:36:25;;;;;;;10.13;0.80;;;;;;;24.93;42.09;100398.59;4916256;29;20047;-63
2022/06/25 05:39:10;;;;;;;2.60;0.40;;;;;;;24.92;42.26;100394.22;4914032;29;20074;-61
2022/06/25 05:41:55;;;;;;;7.22;0.55;;;;;;;24.93;41.82;100390.25;4906881;29;20547;-61
2022/06/25 05:44:40;;;;;;;4.43;0.38;;;;;;;25.00;41.81;100390.13;4921964;29;20048;-61
2022/06/25 05:47:25;;;;;;;0.85;0.55;;;;;;;25.04;42.11;100390.88;4906399;29;20055;-61
2022/06/25 05:50:10;;;;;;;9.60;0.73;;;;;;;25.05;42.20;100392.41;4914086;29;20051;-62
2022/06/25 05:52:56;;;;;;;3.25;0.50;;;;;;;25.07;42.49;100401.16;4914637;29;20048;-62
2022/06/25 05:55:40;;;;;;;10.05;1.55;;;;;;;25.12;42.26;100404.25;4927036;29;20043;-62
2022/06/25 05:58:26;;;;;;;5.10;0.85;;;;;;;25.23;42.58;100400.50;4911465;29;20416;-62
2022/06/25 06:01:10;;;;;;;4.30;0.35;;;;;;;25.28;41.91;100402.81;4918036;29;20071;-63
2022/06/25 06:03:55;;;;;;;3.83;0.52;;;;;;;25.26;42.48;100410.78;4917018;29;20055;-62
2022/06/25 06:06:40;;;;;;;5.03;0.57;;;;;;;25.33;42.02;100410.66;4917386;29;20051;-62
2022/06/25 06:09:27;;;;;;;4.93;0.30;;;;;;;25.34;41.99;100412.25;4916520;29;20047;-63
2022/06/25 06:12:12;;;;;;;10.15;0.50;;;;;;;25.43;41.49;100418.84;4922469;29;20047;-62
2022/06/25 06:14:57;;;;;;;2.42;0.38;;;;;;;25.53;41.84;100417.09;4916526;29;20153;-62
2022/06/25 06:17:42;;;;;;;1.25;0.85;;;;;;;25.54;41.37;100421.44;4917154;29;20130;-62
2022/06/25 06:20:27;;;;;;;1.85;0.40;;;;;;;25.63;41.06;100426.50;4929926;29;20054;-62
2022/06/25 06:23:12;;;;;;;4.03;0.30;;;;;;;25.74;40.73;100427.88;4916594;29;20047;-63
2022/06/25 06:25:57;;;;;;;1.90;0.30;;;;;;;25.88;39.74;100435.19;4916511;29;20117;-62
2022/06/25 06:28:43;;;;;;;4.65;0.50;;;;;;;25.97;38.88;100438.19;4913870;29;20055;-63
2022/06/25 06:31:28;;;;;;;7.60;0.65;;;;;;;26.08;38.06;100430.44;4913947;29;20056;-63
2022/06/25 06:34:13;;;;;;;5.85;0.68;;;;;;;26.12;38.25;100439.50;4914126;29;20121;-62
2022/06/25 06:36:58;;;;;;;2.38;0.52;;;;;;;26.24;38.07;100433.34;4913564;29;20044;-62
2022/06/25 06:39:43;;;;;;;9.35;0.60;;;;;;;26.38;37.76;100435.03;4915397;29;20067;-62
2022/06/25 06:42:29;;;;;;;4.07;0.60;;;;;;;26.55;37.62;100438.69;4913277;29;20355;-62
2022/06/25 06:45:14;;;;;;;1.92;0.52;;;;;;;26.77;37.43;100454.50;4912910;29;20070;-63
2022/06/25 06:47:59;;;;;;;0.85;0.50;;;;;;;26.86;37.00;100453.94;4908952;29;20747;-64
2022/06/25 06:50:44;;;;;;;5.00;0.60;;;;;;;27.07;36.28;100461.06;4912335;29;20051;-62
2022/06/25 06:53:29;;;;;;;11.25;1.33;;;;;;;27.18;36.05;100467.97;4916697;29;20059;-61
2022/06/25 06:56:14;;;;;;;1.63;0.40;;;;;;;27.63;35.46;100467.31;4916707;29;20051;-61
2022/06/25 06:58:59;;;;;;;3.05;0.60;;;;;;;27.86;34.94;100475.50;4916368;29;20055;-63
2022/06/25 07:01:44;;;;;;;1.50;0.40;;;;;;;28.16;33.97;100479.13;4923635;29;20411;-63
2022/06/25 07:04:29;;;;;;;3.95;0.30;;;;;;;28.47;33.64;100478.25;4915932;29;20047;-62
2022/06/25 07:07:34;;;;;;;;;;;;;;;28.69;33.75;100475.63;4918200;29;20518;-63
2022/06/25 07:10:20;;;;;;;6.43;0.77;;;;;;;29.10;32.88;100486.00;4908483;29;19919;-64
2022/06/25 07:13:05;;;;;;;13.20;0.82;;;;;;;29.28;32.86;100488.22;4916147;29;20059;-64
2022/06/25 07:15:50;;;;;;;4.35;0.50;;;;;;;29.52;32.64;100491.47;4916477;29;20055;-63
2022/06/25 07:18:35;;;;;;;1.80;0.60;;;;;;;30.45;31.23;100498.28;4915572;29;20047;-63
2022/06/25 07:21:20;;;;;;;1.83;0.50;;;;;;;31.95;29.09;100503.19;4915975;29;20051;-63
2022/06/25 07:24:06;;;;;;;6.10;0.45;;;;;;;33.89;25.97;100515.88;4915456;29;20051;-63
2022/06/25 07:26:51;;;;;;;3.72;0.70;;;;;;;35.01;24.63;100515.22;4915663;29;20051;-63
2022/06/25 07:29:36;;;;;;;1.67;1.02;;;;;;;35.88;23.74;100516.31;4913121;29;20047;-63
2022/06/25 07:32:20;;;;;;;2.25;0.50;;;;;;;37.06;22.17;100517.09;4915685;29;20051;-63
2022/06/25 07:35:06;;;;;;;4.18;0.57;;;;;;;37.25;22.30;100523.97;4915455;29;20526;-64
2022/06/25 07:37:51;;;;;;;11.05;1.48;;;;;;;37.74;21.67;100527.66;4922441;29;20042;-63
2022/06/25 07:40:36;;;;;;;12.32;1.23;;;;;;;37.68;22.37;100527.63;4921233;29;20038;-63
2022/06/25 07:43:21;;;;;;;12.40;1.23;;;;;;;39.23;20.30;100528.56;4911603;29;20055;-62
2022/06/25 07:46:07;;;;;;;11.07;1.17;;;;;;;39.79;19.75;100542.75;4929310;29;20415;-62
2022/06/25 07:48:51;;;;;;;6.03;1.05;;;;;;;39.74;19.87;100533.66;4914131;29;20051;-64
2022/06/25 07:54:40;;;;;;;10.38;1.80;;;;;;;40.24;19.26;100532.72;4914474;29;20048;-64
2022/06/25 07:57:25;;;;;;;7.45;1.05;;;;;;;40.94;18.45;100534.13;4921340;29;20039;-63
2022/06/25 08:00:11;;;;;;;2.30;0.80;;;;;;;41.20;18.33;100533.63;4914705;29;20066;-63
2022/06/25 08:03:01;;;;;;;5.05;1.02;;;;;;;41.28;17.97;100531.75;4912376;29;20052;-63
2022/06/25 08:05:46;;;;;;;11.15;2.55;;;;;;;41.35;18.26;100531.94;4915336;29;20051;-63
2022/06/25 08:08:31;;;;;;;5.60;1.10;;;;;;;41.04;18.67;100523.16;4913922;29;20059;-63
2022/06/25 08:11:16;;;;;;;7.78;1.35;;;;;;;42.87;16.84;100528.75;4912907;29;20058;-63
2022/06/25 08:14:02;;;;;;;7.55;1.50;;;;;;;42.94;16.85;100528.88;4912373;29;20039;-63
2022/06/25 08:16:47;;;;;;;7.20;1.20;;;;;;;42.64;16.94;100528.28;4913159;29;20416;-62
2022/06/25 08:19:32;;;;;;;8.07;1.73;;;;;;;43.46;16.22;100530.31;4908629;29;20404;-62
2022/06/25 08:22:17;;;;;;;6.95;1.00;;;;;;;43.07;16.61;100531.78;4915100;29;20055;-63
2022/06/25 08:25:03;;;;;;;4.43;0.85;;;;;;;43.96;15.95;100528.56;4915218;29;20043;-62
2022/06/25 08:27:50;;;;;;;6.18;1.95;;;;;;;44.06;15.96;100533.31;4931733;29;20047;-64
2022/06/25 08:30:35;;;;;;;6.30;1.02;;;;;;;44.42;15.96;100524.19;4929685;29;20094;-64
2022/06/25 08:33:20;;;;;;;23.58;2.92;;;;;;;45.55;14.96;100536.00;4911724;29;20713;-64
2022/06/25 08:36:05;;;;;;;9.20;1.98;;;;;;;45.24;14.93;100525.59;4912105;29;20055;-64
2022/06/25 08:38:51;;;;;;;12.98;1.27;;;;;;;45.52;14.44;100532.13;4916288;29;20047;-65
2022/06/25 08:41:36;;;;;;;4.32;1.05;;;;;;;45.34;14.99;100532.38;4909344;29;20051;-65
2022/06/25 08:44:21;;;;;;;11.30;2.13;;;;;;;45.64;14.71;100541.22;4914948;29;20047;-64
2022/06/25 08:47:06;;;;;;;11.50;1.83;;;;;;;46.09;14.14;100540.69;4914223;29;20055;-64
2022/06/25 08:49:52;;;;;;;9.02;1.08;;;;;;;46.09;14.49;100545.69;4908419;29;20043;-64
2022/06/25 08:52:38;;;;;;;16.33;1.63;;;;;;;46.48;14.11;100536.63;4902698;29;20051;-64
2022/06/25 08:55:34;;;;;;;36.08;2.40;;;;;;;46.19;14.11;100538.06;4914874;29;20055;-64
2022/06/25 08:58:19;;;;;;;20.88;2.88;;;;;;;46.54;13.89;100542.22;4913645;29;20156;-63
2022/06/25 09:01:04;;;;;;;11.73;1.08;;;;;;;45.01;15.37;100529.00;4912426;29;20059;-63
2022/06/25 09:03:49;;;;;;;11.55;1.17;;;;;;;46.51;14.45;100531.84;4914853;29;20047;-65
2022/06/25 09:06:34;;;;;;;40.67;2.60;;;;;;;43.74;16.26;100524.03;4916016;29;20439;-72
2022/06/25 09:09:20;;;;;;;8.52;1.30;;;;;;;39.18;21.27;100509.44;4909937;29;20055;-67
2022/06/25 09:12:08;;;;;;;9.45;1.17;;;;;;;36.58;24.36;100514.06;4913303;29;20047;-70
2022/06/25 09:14:53;;;;;;;23.08;2.95;;;;;;;34.66;27.15;100503.81;4913050;29;20051;-67
2022/06/25 09:17:47;;;;;;;16.52;1.88;;;;;;;33.50;29.15;100508.59;4913512;29;20039;-66
2022/06/25 09:20:32;;;;;;;16.38;1.85;;;;;;;32.58;31.01;100502.44;4914355;29;20064;-67
2022/06/25 09:23:16;;;;;;;28.20;1.95;;;;;;;32.06;31.96;100500.72;4913701;29;20047;-66
2022/06/25 09:26:03;;;;;;;27.75;1.70;;;;;;;31.64;32.63;100496.91;4923451;29;20060;-65
2022/06/25 09:28:48;;;;;;;10.43;1.30;;;;;;;31.16;33.65;100492.81;4913601;29;20106;-66
2022/06/25 09:31:34;;;;;;;6.78;1.08;;;;;;;30.87;33.72;100487.50;4916276;29;20043;-66
2022/06/25 09:34:34;;;;;;;14.48;1.98;;;;;;;30.64;34.62;100487.97;4915783;29;20055;-66
2022/06/25 09:37:25;;;;;;;6.60;1.13;;;;;;;30.47;34.81;100496.63;4916353;29;20055;-66
2022/06/25 09:40:10;;;;;;;8.85;1.05;;;;;;;30.29;34.76;100490.84;4913505;29;20051;-66
2022/06/25 09:42:56;;;;;;;12.15;1.90;;;;;;;30.18;35.04;100488.41;4917396;29;20048;-66
2022/06/25 09:45:47;;;;;;;10.45;1.30;;;;;;;30.07;35.25;100487.25;4917369;29;20059;-66
2022/06/25 09:48:35;;;;;;;14.77;2.10;;;;;;;30.03;35.43;100484.53;4916577;29;20526;-65
2022/06/25 09:51:24;;;;;;;16.33;2.03;;;;;;;30.00;35.08;100485.47;4917389;29;20055;-66
2022/06/25 09:54:10;;;;;;;6.35;1.33;;;;;;;30.08;35.33;100480.38;4913717;29;20043;-66
2022/06/25 09:56:56;;;;;;;13.75;2.58;;;;;;;29.95;35.94;100480.44;4917135;29;20059;-67
2022/06/25 09:59:41;;;;;;;12.07;1.85;;;;;;;29.87;35.88;100481.88;4915456;29;20059;-67
2022/06/25 10:02:28;;;;;;;12.02;2.97;;;;;;;29.86;36.38;100482.34;4912273;29;20047;-67
2022/06/25 10:05:17;;;;;;;16.45;2.42;;;;;;;29.87;36.25;100483.91;4913772;29;20055;-68
2022/06/25 10:08:06;;;;;;;13.48;3.17;;;;;;;29.75;36.67;100486.28;4917132;29;20408;-66
2022/06/25 10:10:54;;;;;;;9.77;2.67;;;;;;;29.76;36.31;100485.03;4916449;29;20704;-65
2022/06/25 10:13:41;;;;;;;8.25;2.05;;;;;;;29.87;35.84;100478.31;4916415;29;20523;-67
2022/06/25 10:16:28;;;;;;;17.60;2.60;;;;;;;29.78;36.77;100481.78;4916460;29;20047;-67
2022/06/25 10:19:14;;;;;;;10.25;2.63;;;;;;;29.77;36.64;100475.38;4913257;29;20051;-67
2022/06/25 10:22:00;;;;;;;8.40;2.55;;;;;;;29.71;36.77;100471.59;4916234;29;20051;-66
2022/06/25 10:24:44;;;;;;;11.27;2.67;;;;;;;29.63;37.43;100475.88;4915275;29;20047;-69
2022/06/25 10:27:40;;;;;;;13.82;3.38;;;;;;;29.61;37.19;100467.13;4917914;29;20538;-66
2022/06/25 10:30:48;;;;;;;13.15;2.53;;;;;;;29.66;37.50;100466.56;4915235;29;20046;-65
2022/06/25 10:33:51;;;;;;;9.93;1.80;;;;;;;29.75;37.22;100465.88;4913449;29;20126;-67
2022/06/25 10:36:46;;;;;;;16.30;3.80;;;;;;;29.76;37.31;100465.41;4914001;29;20047;-65
2022/06/25 10:39:35;;;;;;;4.75;1.40;;;;;;;29.96;36.88;100462.38;4912559;29;20043;-68
2022/06/25 10:45:24;;;;;;;8.97;1.70;;;;;;;29.92;36.46;100460.94;4915296;29;20051;-65
2022/06/25 10:48:09;;;;;;;10.55;2.08;;;;;;;29.84;36.55;100449.13;4914319;29;20504;-65
2022/06/25 10:50:54;;;;;;;8.40;1.67;;;;;;;29.84;36.92;100456.75;4916655;29;20849;-65
2022/06/25 10:53:42;;;;;;;7.78;1.98;;;;;;;29.75;37.17;100444.25;4986317;23;20042;-67
2022/06/25 10:56:32;;;;;;;9.60;2.10;;;;;;;29.71;37.28;100437.94;4913063;29;20075;-68
2022/06/25 10:59:32;;;;;;;5.72;1.55;;;;;;;29.72;37.28;100447.94;4915087;29;20047;-67
2022/06/25 11:02:23;;;;;;;13.88;1.63;;;;;;;29.71;37.63;100449.16;4923390;29;20109;-67
2022/06/25 11:05:18;;;;;;;8.15;1.90;;;;;;;29.70;37.45;100442.00;4923389;29;20054;-69
2022/06/25 11:08:03;;;;;;;5.60;1.60;;;;;;;29.76;36.91;100440.19;4915068;29;20051;-68
2022/06/25 11:10:49;;;;;;;3.30;1.33;;;;;;;29.75;37.11;100441.44;4930832;28;20055;-67
2022/06/25 11:13:34;;;;;;;11.48;2.22;;;;;;;29.92;36.82;100441.31;4915672;29;20145;-67
2022/06/25 11:16:20;;;;;;;11.20;2.00;;;;;;;29.93;36.90;100442.84;4916375;29;20046;-68
2022/06/25 11:19:05;;;;;;;5.57;1.50;;;;;;;30.01;37.18;100438.56;4921339;29;20408;-67
2022/06/25 11:21:50;;;;;;;6.47;1.50;;;;;;;30.03;36.29;100444.50;4915361;29;20059;-68
2022/06/25 11:24:35;;;;;;;10.18;1.33;;;;;;;29.99;36.72;100441.81;4916191;29;20058;-69
2022/06/25 11:30:27;;;;;;;4.75;1.38;;;;;;;29.85;36.76;100444.31;4913131;29;20050;-67
2022/06/25 11:33:11;;;;;;;9.10;1.58;;;;;;;29.91;37.00;100451.72;4914436;29;20502;-67
2022/06/25 11:36:08;;;;;;;6.90;1.38;;;;;;;30.10;36.13;100447.06;4914524;29;20063;-69
2022/06/25 11:38:55;;;;;;;5.25;1.95;;;;;;;30.09;35.98;100439.88;4912781;29;20055;-69
2022/06/25 11:41:39;;;;;;;6.40;1.40;;;;;;;30.16;36.17;100448.81;4918359;29;20044;-69
2022/06/25 11:44:24;;;;;;;5.35;1.63;;;;;;;30.01;36.80;100439.34;4926079;29;20403;-67
2022/06/25 11:47:12;;;;;;;6.82;1.42;;;;;;;29.97;36.59;100443.53;4914475;29;20396;-69
2022/06/25 11:50:00;;;;;;;4.10;1.50;;;;;;;29.96;36.62;100431.53;4914299;29;20539;-68
2022/06/25 11:52:46;;;;;;;3.63;1.20;;;;;;;30.00;36.77;100437.00;4909429;29;20147;-67
2022/06/25 11:55:30;;;;;;;5.68;1.38;;;;;;;29.98;36.80;100426.22;4913076;29;20526;-69
2022/06/25 11:58:16;;;;;;;6.53;1.23;;;;;;;30.03;36.30;100436.06;4915351;29;20408;-68
2022/06/25 12:01:04;;;;;;;3.80;0.80;;;;;;;30.13;35.95;100434.91;4912644;29;20051;-66
2022/06/25 12:03:49;;;;;;;14.90;1.80;;;;;;;30.20;35.43;100434.66;4914768;29;20046;-67
2022/06/25 12:06:34;;;;;;;4.78;1.23;;;;;;;30.47;34.30;100432.06;4914457;29;20506;-69
2022/06/25 12:09:20;;;;;;;10.50;1.45;;;;;;;30.26;34.91;100440.47;4913997;29;20063;-67
2022/06/25 12:12:06;;;;;;;6.75;2.10;;;;;;;30.14;35.60;100439.28;4910494;29;20396;-69
2022/06/25 12:14:51;;;;;;;7.68;1.40;;;;;;;30.05;35.50;100434.41;4906678;29;20047;-68
2022/06/25 12:17:38;;;;;;;6.10;1.48;;;;;;;30.04;36.04;100427.22;4896053;29;20055;-69
2022/06/25 12:20:23;;;;;;;9.48;1.17;;;;;;;29.94;35.81;100416.38;4907519;29;20511;-66
2022/06/25 12:23:08;;;;;;;5.50;1.00;;;;;;;29.93;35.54;100418.41;4903842;29;20059;-68
2022/06/25 12:25:53;;;;;;;4.60;1.60;;;;;;;30.17;34.74;100419.50;4917293;29;20043;-68
2022/06/25 12:28:39;;;;;;;4.57;1.20;;;;;;;30.13;35.10;100418.06;4907216;29;20047;-67
2022/06/25 12:31:25;;;;;;;6.10;1.42;;;;;;;30.07;35.04;100419.91;4905985;29;20047;-68
2022/06/25 12:34:11;;;;;;;3.75;1.30;;;;;;;30.03;35.17;100414.41;4898998;29;20126;-68
2022/06/25 12:36:56;;;;;;;3.42;1.25;;;;;;;30.11;34.88;100414.97;4912398;29;20043;-67
2022/06/25 12:39:45;;;;;;;2.75;0.98;;;;;;;30.04;34.83;100416.00;4913370;29;20688;-68
2022/06/25 12:42:33;;;;;;;5.38;1.80;;;;;;;29.99;34.81;100410.97;4920895;29;20055;-68
2022/06/25 12:45:21;;;;;;;4.32;0.98;;;;;;;30.04;34.73;100410.38;4917544;29;20063;-67
2022/06/25 12:48:07;;;;;;;6.78;1.13;;;;;;;30.15;34.67;100410.00;4920905;29;20070;-67
2022/06/25 12:50:52;;;;;;;3.50;0.90;;;;;;;30.12;35.03;100411.69;4911264;29;20064;-68
2022/06/25 12:53:39;;;;;;;8.63;1.02;;;;;;;30.32;34.86;100410.59;4916968;29;20047;-66
2022/06/25 12:56:24;;;;;;;1.85;0.93;;;;;;;30.48;34.25;100402.75;4915420;29;20071;-68
2022/06/25 12:59:12;;;;;;;3.90;1.15;;;;;;;30.44;34.30;100404.09;4914077;29;20043;-67
2022/06/25 13:01:56;;;;;;;3.80;1.20;;;;;;;30.40;34.43;100397.84;4914133;29;20106;-67
2022/06/25 13:04:42;;;;;;;3.03;1.00;;;;;;;30.39;34.19;100396.28;4914831;29;20055;-67
2022/06/25 13:07:27;;;;;;;4.25;1.10;;;;;;;30.28;34.64;100393.06;4917915;29;20047;-68